sensor_id;sensor_type;location;lat;lon;timestamp;P1;P2;P0
63707;PMS5003;67643;-34.198;22.084;2023-02-23T00:00:21;6;4;
63707;PMS5003;67643;-34.198;22.084;2023-02-23T02:10:56;6;3;
63707;PMS5003;67643;-34.198;22.084;2023-02-23T02:13:25;4;4;
63707;PMS5003;67643;-34.198;22.084;2023-02-23T02:18:07;5;3;
63707;PMS5003;67643;-34.198;22.084;2023-02-23T02:20:47;8;6;
63707;PMS5003;67643;-34.198;22.084;2023-02-23T02:23:38;6;5;
63707;PMS5003;67643;-34.198;22.084;2023-02-23T02:26:30;6;3;
63707;PMS5003;67643;-34.198;22.084;2023-02-23T02:29:17;8;6;
63707;PMS5003;67643;-34.198;22.084;2023-02-23T02:32:21;7;4;
63707;PMS5003;67643;-34.198;22.084;2023-02-23T02:35:08;5;5;
63707;PMS5003;67643;-34.198;22.084;2023-02-23T02:37:54;5;5;
63707;PMS5003;67643;-34.198;22.084;2023-02-23T02:40:31;5;4;
63707;PMS5003;67643;-34.198;22.084;2023-02-23T02:43:10;4;4;
63707;PMS5003;67643;-34.198;22.084;2023-02-23T02:45:47;8;5;
63707;PMS5003;67643;-34.198;22.084;2023-02-23T02:48:22;9;4;
63707;PMS5003;67643;-34.198;22.084;2023-02-23T02:51:01;4;4;
63707;PMS5003;67643;-34.198;22.084;2023-02-23T02:53:34;3;3;
63707;PMS5003;67643;-34.198;22.084;2023-02-23T02:56:07;6;5;
63707;PMS5003;67643;-34.198;22.084;2023-02-23T02:58:37;5;5;
63707;PMS5003;67643;-34.198;22.084;2023-02-23T03:01:07;4;4;
63707;PMS5003;67643;-34.198;22.084;2023-02-23T03:03:41;5;5;
63707;PMS5003;67643;-34.198;22.084;2023-02-23T03:06:11;4;4;
63707;PMS5003;67643;-34.198;22.084;2023-02-23T03:08:42;3;3;
63707;PMS5003;67643;-34.198;22.084;2023-02-23T03:11:16;7;4;
63707;PMS5003;67643;-34.198;22.084;2023-02-23T03:13:47;5;4;
63707;PMS5003;67643;-34.198;22.084;2023-02-23T03:16:30;6;3;
63707;PMS5003;67643;-34.198;22.084;2023-02-23T03:19:10;5;4;
63707;PMS5003;67643;-34.198;22.084;2023-02-23T03:21:46;7;6;
63707;PMS5003;67643;-34.198;22.084;2023-02-23T03:24:20;3;3;
63707;PMS5003;67643;-34.198;22.084;2023-02-23T03:26:58;5;2;
63707;PMS5003;67643;-34.198;22.084;2023-02-23T03:29:32;4;4;
63707;PMS5003;67643;-34.198;22.084;2023-02-23T03:32:08;6;5;
63707;PMS5003;67643;-34.198;22.084;2023-02-23T03:34:45;10;5;
63707;PMS5003;67643;-34.198;22.084;2023-02-23T03:37:21;34;25;
63707;PMS5003;67643;-34.198;22.084;2023-02-23T03:39:55;31;29;
63707;PMS5003;67643;-34.198;22.084;2023-02-23T03:42:32;75;61;
63707;PMS5003;67643;-34.198;22.084;2023-02-23T03:45:05;64;60;
63707;PMS5003;67643;-34.198;22.084;2023-02-23T03:47:39;51;46;
63707;PMS5003;67643;-34.198;22.084;2023-02-23T03:50:12;36;34;
63707;PMS5003;67643;-34.198;22.084;2023-02-23T03:52:48;40;36;
63707;PMS5003;67643;-34.198;22.084;2023-02-23T03:55:21;41;35;
63707;PMS5003;67643;-34.198;22.084;2023-02-23T03:57:54;40;35;
63707;PMS5003;67643;-34.198;22.084;2023-02-23T04:00:27;39;32;
63707;PMS5003;67643;-34.198;22.084;2023-02-23T04:03:00;30;24;
63707;PMS5003;67643;-34.198;22.084;2023-02-23T04:05:32;28;26;
63707;PMS5003;67643;-34.198;22.084;2023-02-23T04:08:05;25;22;
63707;PMS5003;67643;-34.198;22.084;2023-02-23T04:10:39;32;22;
63707;PMS5003;67643;-34.198;22.084;2023-02-23T04:13:13;23;19;
63707;PMS5003;67643;-34.198;22.084;2023-02-23T04:15:47;18;18;
63707;PMS5003;67643;-34.198;22.084;2023-02-23T04:18:21;17;17;
63707;PMS5003;67643;-34.198;22.084;2023-02-23T04:20:52;21;20;
63707;PMS5003;67643;-34.198;22.084;2023-02-23T04:23:21;18;16;
63707;PMS5003;67643;-34.198;22.084;2023-02-23T04:25:51;14;13;
63707;PMS5003;67643;-34.198;22.084;2023-02-23T04:28:20;18;13;
63707;PMS5003;67643;-34.198;22.084;2023-02-23T04:30:50;11;10;
63707;PMS5003;67643;-34.198;22.084;2023-02-23T04:33:18;11;9;
63707;PMS5003;67643;-34.198;22.084;2023-02-23T04:35:47;17;12;
63707;PMS5003;67643;-34.198;22.084;2023-02-23T04:38:18;15;14;
63707;PMS5003;67643;-34.198;22.084;2023-02-23T04:40:47;15;10;
63707;PMS5003;67643;-34.198;22.084;2023-02-23T04:43:16;14;13;
63707;PMS5003;67643;-34.198;22.084;2023-02-23T04:45:45;13;12;
63707;PMS5003;67643;-34.198;22.084;2023-02-23T04:48:13;9;9;
63707;PMS5003;67643;-34.198;22.084;2023-02-23T04:50:42;11;9;
63707;PMS5003;67643;-34.198;22.084;2023-02-23T04:53:10;11;11;
63707;PMS5003;67643;-34.198;22.084;2023-02-23T04:55:39;11;9;
63707;PMS5003;67643;-34.198;22.084;2023-02-23T04:58:08;13;11;
63707;PMS5003;67643;-34.198;22.084;2023-02-23T05:00:38;14;11;
63707;PMS5003;67643;-34.198;22.084;2023-02-23T05:03:07;14;13;
63707;PMS5003;67643;-34.198;22.084;2023-02-23T05:05:36;12;12;
63707;PMS5003;67643;-34.198;22.084;2023-02-23T05:08:05;16;16;
63707;PMS5003;67643;-34.198;22.084;2023-02-23T05:10:34;28;25;
63707;PMS5003;67643;-34.198;22.084;2023-02-23T05:13:02;26;25;
63707;PMS5003;67643;-34.198;22.084;2023-02-23T05:15:31;31;27;
63707;PMS5003;67643;-34.198;22.084;2023-02-23T05:17:59;21;21;
63707;PMS5003;67643;-34.198;22.084;2023-02-23T05:20:28;27;23;
63707;PMS5003;67643;-34.198;22.084;2023-02-23T05:22:56;24;21;
63707;PMS5003;67643;-34.198;22.084;2023-02-23T05:25:24;23;18;
63707;PMS5003;67643;-34.198;22.084;2023-02-23T05:32:06;32;26;
63707;PMS5003;67643;-34.198;22.084;2023-02-23T05:34:34;26;23;
63707;PMS5003;67643;-34.198;22.084;2023-02-23T05:37:02;27;20;
63707;PMS5003;67643;-34.198;22.084;2023-02-23T05:39:31;25;22;
63707;PMS5003;67643;-34.198;22.084;2023-02-23T05:42:00;25;22;
63707;PMS5003;67643;-34.198;22.084;2023-02-23T05:44:29;23;21;
63707;PMS5003;67643;-34.198;22.084;2023-02-23T05:46:57;30;22;
63707;PMS5003;67643;-34.198;22.084;2023-02-23T05:49:25;30;20;
63707;PMS5003;67643;-34.198;22.084;2023-02-23T05:51:55;26;21;
63707;PMS5003;67643;-34.198;22.084;2023-02-23T05:54:23;26;20;
63707;PMS5003;67643;-34.198;22.084;2023-02-23T05:56:51;28;22;
63707;PMS5003;67643;-34.198;22.084;2023-02-23T05:59:20;25;21;
63707;PMS5003;67643;-34.198;22.084;2023-02-23T06:01:48;25;18;
63707;PMS5003;67643;-34.198;22.084;2023-02-23T06:04:16;18;17;
63707;PMS5003;67643;-34.198;22.084;2023-02-23T06:06:45;22;19;
63707;PMS5003;67643;-34.198;22.084;2023-02-23T06:09:13;24;19;
63707;PMS5003;67643;-34.198;22.084;2023-02-23T06:11:42;20;17;
63707;PMS5003;67643;-34.198;22.084;2023-02-23T06:14:10;16;15;
63707;PMS5003;67643;-34.198;22.084;2023-02-23T06:16:40;21;14;
63707;PMS5003;67643;-34.198;22.084;2023-02-23T06:19:09;20;15;
63707;PMS5003;67643;-34.198;22.084;2023-02-23T06:21:38;15;13;
63707;PMS5003;67643;-34.198;22.084;2023-02-23T06:24:06;17;12;
63707;PMS5003;67643;-34.198;22.084;2023-02-23T06:26:34;17;13;
63707;PMS5003;67643;-34.198;22.084;2023-02-23T06:29:02;18;13;
63707;PMS5003;67643;-34.198;22.084;2023-02-23T06:31:31;11;10;
63707;PMS5003;67643;-34.198;22.084;2023-02-23T06:33:59;14;13;
63707;PMS5003;67643;-34.198;22.084;2023-02-23T06:36:27;14;10;
63707;PMS5003;67643;-34.198;22.084;2023-02-23T06:38:56;15;14;
63707;PMS5003;67643;-34.198;22.084;2023-02-23T06:41:25;10;10;
63707;PMS5003;67643;-34.198;22.084;2023-02-23T06:43:53;14;11;
63707;PMS5003;67643;-34.198;22.084;2023-02-23T06:46:22;15;12;
63707;PMS5003;67643;-34.198;22.084;2023-02-23T06:48:53;10;6;
63707;PMS5003;67643;-34.198;22.084;2023-02-23T06:51:22;12;10;
63707;PMS5003;67643;-34.198;22.084;2023-02-23T06:53:51;13;11;
63707;PMS5003;67643;-34.198;22.084;2023-02-23T06:56:20;15;10;
63707;PMS5003;67643;-34.198;22.084;2023-02-23T06:58:48;14;9;
63707;PMS5003;67643;-34.198;22.084;2023-02-23T07:01:16;14;9;
63707;PMS5003;67643;-34.198;22.084;2023-02-23T07:03:45;15;9;
63707;PMS5003;67643;-34.198;22.084;2023-02-23T07:06:14;10;10;
63707;PMS5003;67643;-34.198;22.084;2023-02-23T07:08:43;20;13;
63707;PMS5003;67643;-34.198;22.084;2023-02-23T07:11:12;12;10;
63707;PMS5003;67643;-34.198;22.084;2023-02-23T07:13:41;9;6;
63707;PMS5003;67643;-34.198;22.084;2023-02-23T07:16:10;13;9;
63707;PMS5003;67643;-34.198;22.084;2023-02-23T07:18:39;12;11;
63707;PMS5003;67643;-34.198;22.084;2023-02-23T07:21:07;17;14;
63707;PMS5003;67643;-34.198;22.084;2023-02-23T07:23:36;10;10;
63707;PMS5003;67643;-34.198;22.084;2023-02-23T07:26:04;13;12;
63707;PMS5003;67643;-34.198;22.084;2023-02-23T07:28:32;17;16;
63707;PMS5003;67643;-34.198;22.084;2023-02-23T07:31:01;19;16;
63707;PMS5003;67643;-34.198;22.084;2023-02-23T07:33:30;25;17;
63707;PMS5003;67643;-34.198;22.084;2023-02-23T07:35:59;25;17;
63707;PMS5003;67643;-34.198;22.084;2023-02-23T07:38:27;18;14;
63707;PMS5003;67643;-34.198;22.084;2023-02-23T07:40:56;22;13;
63707;PMS5003;67643;-34.198;22.084;2023-02-23T07:43:24;23;17;
63707;PMS5003;67643;-34.198;22.084;2023-02-23T07:45:53;19;14;
63707;PMS5003;67643;-34.198;22.084;2023-02-23T07:48:25;21;16;
63707;PMS5003;67643;-34.198;22.084;2023-02-23T07:50:54;23;19;
63707;PMS5003;67643;-34.198;22.084;2023-02-23T07:53:23;17;16;
63707;PMS5003;67643;-34.198;22.084;2023-02-23T07:55:54;13;10;
63707;PMS5003;67643;-34.198;22.084;2023-02-23T07:58:23;18;16;
63707;PMS5003;67643;-34.198;22.084;2023-02-23T12:05:27;4;4;
63707;PMS5003;67643;-34.198;22.084;2023-02-23T12:07:58;6;6;
63707;PMS5003;67643;-34.198;22.084;2023-02-23T12:10:33;7;7;
63707;PMS5003;67643;-34.198;22.084;2023-02-23T12:13:11;6;4;
63707;PMS5003;67643;-34.198;22.084;2023-02-23T12:15:52;5;5;
63707;PMS5003;67643;-34.198;22.084;2023-02-23T12:18:29;6;6;
63707;PMS5003;67643;-34.198;22.084;2023-02-23T12:21:12;7;5;
63707;PMS5003;67643;-34.198;22.084;2023-02-23T12:23:49;5;5;
63707;PMS5003;67643;-34.198;22.084;2023-02-23T12:26:27;4;2;
63707;PMS5003;67643;-34.198;22.084;2023-02-23T12:29:00;4;4;
63707;PMS5003;67643;-34.198;22.084;2023-02-23T12:31:41;3;3;
63707;PMS5003;67643;-34.198;22.084;2023-02-23T12:34:15;5;3;
63707;PMS5003;67643;-34.198;22.084;2023-02-23T12:36:53;6;4;
63707;PMS5003;67643;-34.198;22.084;2023-02-23T12:39:26;7;5;
63707;PMS5003;67643;-34.198;22.084;2023-02-23T12:42:00;3;2;
63707;PMS5003;67643;-34.198;22.084;2023-02-23T12:44:36;6;5;
63707;PMS5003;67643;-34.198;22.084;2023-02-23T12:47:15;5;3;
63707;PMS5003;67643;-34.198;22.084;2023-02-23T12:49:55;5;4;
63707;PMS5003;67643;-34.198;22.084;2023-02-23T12:52:29;7;6;
63707;PMS5003;67643;-34.198;22.084;2023-02-23T12:55:02;6;4;
63707;PMS5003;67643;-34.198;22.084;2023-02-23T12:57:38;7;4;
63707;PMS5003;67643;-34.198;22.084;2023-02-23T13:00:40;4;4;
63707;PMS5003;67643;-34.198;22.084;2023-02-23T13:03:27;4;4;
63707;PMS5003;67643;-34.198;22.084;2023-02-23T13:06:14;6;4;
63707;PMS5003;67643;-34.198;22.084;2023-02-23T13:08:54;8;4;
63707;PMS5003;67643;-34.198;22.084;2023-02-23T13:11:35;5;5;
63707;PMS5003;67643;-34.198;22.084;2023-02-23T13:14:16;7;5;
63707;PMS5003;67643;-34.198;22.084;2023-02-23T13:16:52;7;5;
63707;PMS5003;67643;-34.198;22.084;2023-02-23T13:19:27;5;3;
63707;PMS5003;67643;-34.198;22.084;2023-02-23T13:22:04;5;5;
63707;PMS5003;67643;-34.198;22.084;2023-02-23T13:24:48;5;5;
63707;PMS5003;67643;-34.198;22.084;2023-02-23T13:27:22;6;5;
63707;PMS5003;67643;-34.198;22.084;2023-02-23T13:29:55;4;4;
63707;PMS5003;67643;-34.198;22.084;2023-02-23T13:32:25;4;4;
63707;PMS5003;67643;-34.198;22.084;2023-02-23T13:34:57;7;7;
63707;PMS5003;67643;-34.198;22.084;2023-02-23T13:37:27;4;3;
63707;PMS5003;67643;-34.198;22.084;2023-02-23T13:40:05;5;4;
63707;PMS5003;67643;-34.198;22.084;2023-02-23T13:42:51;4;4;
63707;PMS5003;67643;-34.198;22.084;2023-02-23T13:45:42;8;5;
63707;PMS5003;67643;-34.198;22.084;2023-02-23T13:48:24;9;6;
63707;PMS5003;67643;-34.198;22.084;2023-02-23T13:51:02;9;5;
63707;PMS5003;67643;-34.198;22.084;2023-02-23T13:53:37;8;3;
63707;PMS5003;67643;-34.198;22.084;2023-02-23T13:56:09;7;4;
63707;PMS5003;67643;-34.198;22.084;2023-02-23T13:58:44;6;5;
63707;PMS5003;67643;-34.198;22.084;2023-02-23T14:01:15;8;7;
63707;PMS5003;67643;-34.198;22.084;2023-02-23T14:03:51;7;5;
63707;PMS5003;67643;-34.198;22.084;2023-02-23T14:06:22;8;6;
63707;PMS5003;67643;-34.198;22.084;2023-02-23T14:08:54;7;6;
63707;PMS5003;67643;-34.198;22.084;2023-02-23T14:11:27;19;9;
63707;PMS5003;67643;-34.198;22.084;2023-02-23T14:14:08;7;6;
63707;PMS5003;67643;-34.198;22.084;2023-02-23T14:16:41;6;6;
63707;PMS5003;67643;-34.198;22.084;2023-02-23T14:19:35;5;5;
63707;PMS5003;67643;-34.198;22.084;2023-02-23T14:22:08;5;5;
63707;PMS5003;67643;-34.198;22.084;2023-02-23T14:24:39;8;7;
63707;PMS5003;67643;-34.198;22.084;2023-02-23T14:27:17;10;8;
63707;PMS5003;67643;-34.198;22.084;2023-02-23T14:30:23;8;7;
63707;PMS5003;67643;-34.198;22.084;2023-02-23T14:32:54;6;6;
63707;PMS5003;67643;-34.198;22.084;2023-02-23T14:35:37;12;10;
63707;PMS5003;67643;-34.198;22.084;2023-02-23T14:38:14;8;8;
63707;PMS5003;67643;-34.198;22.084;2023-02-23T14:40:49;8;6;
63707;PMS5003;67643;-34.198;22.084;2023-02-23T14:43:52;7;7;
63707;PMS5003;67643;-34.198;22.084;2023-02-23T14:46:25;9;6;
63707;PMS5003;67643;-34.198;22.084;2023-02-23T14:48:56;8;6;
63707;PMS5003;67643;-34.198;22.084;2023-02-23T14:51:32;6;6;
63707;PMS5003;67643;-34.198;22.084;2023-02-23T14:54:09;7;6;
63707;PMS5003;67643;-34.198;22.084;2023-02-23T14:56:44;5;5;
63707;PMS5003;67643;-34.198;22.084;2023-02-23T14:59:17;5;3;
63707;PMS5003;67643;-34.198;22.084;2023-02-23T15:01:47;5;5;
63707;PMS5003;67643;-34.198;22.084;2023-02-23T15:04:17;5;4;
63707;PMS5003;67643;-34.198;22.084;2023-02-23T15:06:47;5;3;
63707;PMS5003;67643;-34.198;22.084;2023-02-23T15:09:19;8;4;
63707;PMS5003;67643;-34.198;22.084;2023-02-23T15:11:55;5;3;
63707;PMS5003;67643;-34.198;22.084;2023-02-23T15:14:26;6;3;
63707;PMS5003;67643;-34.198;22.084;2023-02-23T15:16:58;4;4;
63707;PMS5003;67643;-34.198;22.084;2023-02-23T15:19:27;3;2;
63707;PMS5003;67643;-34.198;22.084;2023-02-23T15:22:00;8;3;
63707;PMS5003;67643;-34.198;22.084;2023-02-23T15:24:31;5;4;
63707;PMS5003;67643;-34.198;22.084;2023-02-23T15:27:14;5;5;
63707;PMS5003;67643;-34.198;22.084;2023-02-23T15:29:45;3;3;
63707;PMS5003;67643;-34.198;22.084;2023-02-23T15:32:17;6;4;
63707;PMS5003;67643;-34.198;22.084;2023-02-23T15:34:46;76;59;
63707;PMS5003;67643;-34.198;22.084;2023-02-23T15:37:19;92;75;
63707;PMS5003;67643;-34.198;22.084;2023-02-23T15:39:55;138;116;
63707;PMS5003;67643;-34.198;22.084;2023-02-23T15:42:27;87;73;
63707;PMS5003;67643;-34.198;22.084;2023-02-23T15:45:03;124;95;
63707;PMS5003;67643;-34.198;22.084;2023-02-23T15:47:40;82;69;
63707;PMS5003;67643;-34.198;22.084;2023-02-23T15:50:13;79;66;
63707;PMS5003;67643;-34.198;22.084;2023-02-23T15:52:45;90;75;
63707;PMS5003;67643;-34.198;22.084;2023-02-23T15:55:18;81;66;
63707;PMS5003;67643;-34.198;22.084;2023-02-23T15:57:52;42;36;
63707;PMS5003;67643;-34.198;22.084;2023-02-23T20:07:31;6;6;
63707;PMS5003;67643;-34.198;22.084;2023-02-23T20:10:00;6;5;
63707;PMS5003;67643;-34.198;22.084;2023-02-23T20:12:29;6;5;
63707;PMS5003;67643;-34.198;22.084;2023-02-23T20:14:58;7;6;
63707;PMS5003;67643;-34.198;22.084;2023-02-23T20:17:26;7;5;
63707;PMS5003;67643;-34.198;22.084;2023-02-23T20:19:55;10;6;
63707;PMS5003;67643;-34.198;22.084;2023-02-23T20:22:23;5;5;
63707;PMS5003;67643;-34.198;22.084;2023-02-23T20:24:52;5;5;
63707;PMS5003;67643;-34.198;22.084;2023-02-23T20:27:20;3;3;
63707;PMS5003;67643;-34.198;22.084;2023-02-23T20:29:49;4;4;
63707;PMS5003;67643;-34.198;22.084;2023-02-23T20:32:17;3;3;
63707;PMS5003;67643;-34.198;22.084;2023-02-23T20:34:46;5;5;
63707;PMS5003;67643;-34.198;22.084;2023-02-23T20:37:14;6;5;
63707;PMS5003;67643;-34.198;22.084;2023-02-23T20:39:42;4;4;
63707;PMS5003;67643;-34.198;22.084;2023-02-23T20:42:10;6;6;
63707;PMS5003;67643;-34.198;22.084;2023-02-23T20:44:39;3;3;
63707;PMS5003;67643;-34.198;22.084;2023-02-23T20:47:07;5;5;
63707;PMS5003;67643;-34.198;22.084;2023-02-23T20:49:36;3;3;
63707;PMS5003;67643;-34.198;22.084;2023-02-23T20:52:04;4;4;
63707;PMS5003;67643;-34.198;22.084;2023-02-23T20:54:33;4;3;
63707;PMS5003;67643;-34.198;22.084;2023-02-23T20:57:01;5;4;
63707;PMS5003;67643;-34.198;22.084;2023-02-23T20:59:30;7;4;
63707;PMS5003;67643;-34.198;22.084;2023-02-23T21:01:58;5;4;
63707;PMS5003;67643;-34.198;22.084;2023-02-23T21:04:26;5;5;
63707;PMS5003;67643;-34.198;22.084;2023-02-23T21:06:55;7;5;
63707;PMS5003;67643;-34.198;22.084;2023-02-23T21:09:25;8;6;
63707;PMS5003;67643;-34.198;22.084;2023-02-23T21:11:53;6;6;
63707;PMS5003;67643;-34.198;22.084;2023-02-23T21:14:22;10;5;
63707;PMS5003;67643;-34.198;22.084;2023-02-23T21:16:50;7;6;
63707;PMS5003;67643;-34.198;22.084;2023-02-23T21:19:18;14;11;
63707;PMS5003;67643;-34.198;22.084;2023-02-23T21:21:48;11;9;
63707;PMS5003;67643;-34.198;22.084;2023-02-23T21:24:18;9;9;
63707;PMS5003;67643;-34.198;22.084;2023-02-23T21:26:46;15;13;
63707;PMS5003;67643;-34.198;22.084;2023-02-23T21:29:15;9;9;
63707;PMS5003;67643;-34.198;22.084;2023-02-23T21:31:44;8;8;
63707;PMS5003;67643;-34.198;22.084;2023-02-23T21:34:13;8;6;
63707;PMS5003;67643;-34.198;22.084;2023-02-23T21:36:41;5;4;
63707;PMS5003;67643;-34.198;22.084;2023-02-23T21:39:09;9;7;
63707;PMS5003;67643;-34.198;22.084;2023-02-23T21:41:39;5;5;
63707;PMS5003;67643;-34.198;22.084;2023-02-23T21:44:07;8;6;
63707;PMS5003;67643;-34.198;22.084;2023-02-23T21:46:37;8;8;
63707;PMS5003;67643;-34.198;22.084;2023-02-23T21:49:05;4;4;
63707;PMS5003;67643;-34.198;22.084;2023-02-23T21:51:34;5;5;
63707;PMS5003;67643;-34.198;22.084;2023-02-23T21:54:03;7;6;
63707;PMS5003;67643;-34.198;22.084;2023-02-23T21:56:32;7;7;
63707;PMS5003;67643;-34.198;22.084;2023-02-23T21:59:01;6;6;
63707;PMS5003;67643;-34.198;22.084;2023-02-23T22:01:31;8;6;
63707;PMS5003;67643;-34.198;22.084;2023-02-23T22:04:01;7;7;
63707;PMS5003;67643;-34.198;22.084;2023-02-23T22:06:33;7;7;
63707;PMS5003;67643;-34.198;22.084;2023-02-23T22:09:04;8;5;
63707;PMS5003;67643;-34.198;22.084;2023-02-23T22:11:35;9;8;
63707;PMS5003;67643;-34.198;22.084;2023-02-23T22:14:05;7;6;
63707;PMS5003;67643;-34.198;22.084;2023-02-23T22:16:34;7;6;
63707;PMS5003;67643;-34.198;22.084;2023-02-23T22:19:05;6;6;
63707;PMS5003;67643;-34.198;22.084;2023-02-23T22:21:35;5;5;
63707;PMS5003;67643;-34.198;22.084;2023-02-23T22:24:06;6;6;
63707;PMS5003;67643;-34.198;22.084;2023-02-23T22:26:37;5;5;
63707;PMS5003;67643;-34.198;22.084;2023-02-23T22:29:07;6;5;
63707;PMS5003;67643;-34.198;22.084;2023-02-23T22:31:36;6;6;
63707;PMS5003;67643;-34.198;22.084;2023-02-23T22:34:06;5;5;
63707;PMS5003;67643;-34.198;22.084;2023-02-23T22:36:34;5;5;
63707;PMS5003;67643;-34.198;22.084;2023-02-23T22:39:03;7;7;
63707;PMS5003;67643;-34.198;22.084;2023-02-23T22:41:32;8;6;
63707;PMS5003;67643;-34.198;22.084;2023-02-23T22:44:00;5;5;
63707;PMS5003;67643;-34.198;22.084;2023-02-23T22:46:29;7;6;
63707;PMS5003;67643;-34.198;22.084;2023-02-23T22:48:57;6;6;
63707;PMS5003;67643;-34.198;22.084;2023-02-23T22:51:26;6;5;
63707;PMS5003;67643;-34.198;22.084;2023-02-23T22:53:54;7;4;
63707;PMS5003;67643;-34.198;22.084;2023-02-23T22:56:23;6;4;
63707;PMS5003;67643;-34.198;22.084;2023-02-23T22:58:51;6;6;
63707;PMS5003;67643;-34.198;22.084;2023-02-23T23:01:20;7;6;
63707;PMS5003;67643;-34.198;22.084;2023-02-23T23:03:49;12;8;
63707;PMS5003;67643;-34.198;22.084;2023-02-23T23:06:18;6;5;
63707;PMS5003;67643;-34.198;22.084;2023-02-23T23:08:48;8;5;
63707;PMS5003;67643;-34.198;22.084;2023-02-23T23:11:18;6;5;
63707;PMS5003;67643;-34.198;22.084;2023-02-23T23:13:50;6;4;
63707;PMS5003;67643;-34.198;22.084;2023-02-23T23:16:22;5;5;
63707;PMS5003;67643;-34.198;22.084;2023-02-23T23:18:52;4;4;
63707;PMS5003;67643;-34.198;22.084;2023-02-23T23:21:23;7;5;
63707;PMS5003;67643;-34.198;22.084;2023-02-23T23:23:53;4;4;
63707;PMS5003;67643;-34.198;22.084;2023-02-23T23:26:24;7;6;
63707;PMS5003;67643;-34.198;22.084;2023-02-23T23:28:55;7;7;
63707;PMS5003;67643;-34.198;22.084;2023-02-23T23:31:25;7;7;
63707;PMS5003;67643;-34.198;22.084;2023-02-23T23:33:55;5;4;
63707;PMS5003;67643;-34.198;22.084;2023-02-23T23:36:27;6;6;
63707;PMS5003;67643;-34.198;22.084;2023-02-23T23:38:56;5;5;
63707;PMS5003;67643;-34.198;22.084;2023-02-23T23:41:25;4;3;
63707;PMS5003;67643;-34.198;22.084;2023-02-23T23:43:57;7;5;
63707;PMS5003;67643;-34.198;22.084;2023-02-23T23:46:27;8;5;
63707;PMS5003;67643;-34.198;22.084;2023-02-23T23:48:57;11;5;
63707;PMS5003;67643;-34.198;22.084;2023-02-23T23:51:27;10;5;
63707;PMS5003;67643;-34.198;22.084;2023-02-23T23:53:58;6;6;
63707;PMS5003;67643;-34.198;22.084;2023-02-23T23:56:27;5;5;
63707;PMS5003;67643;-34.198;22.084;2023-02-23T23:58:57;5;5;
